sensor_id;sensor_type;location;lat;lon;timestamp;pressure;altitude;pressure_sealevel;temperature;humidity
37860;BME280;23698;52.014;5.190;2023-04-07T00:02:35;101302.78;;;10.61;100.00
37860;BME280;23698;52.014;5.190;2023-04-07T00:05:22;101303.38;;;10.48;100.00
37860;BME280;23698;52.014;5.190;2023-04-07T00:08:09;101315.31;;;10.62;100.00
37860;BME280;23698;52.014;5.190;2023-04-07T00:10:55;101308.75;;;10.33;100.00
37860;BME280;23698;52.014;5.190;2023-04-07T00:13:43;101302.69;;;10.54;100.00
37860;BME280;23698;52.014;5.190;2023-04-07T00:16:30;101303.38;;;10.48;100.00
37860;BME280;23698;52.014;5.190;2023-04-07T00:19:16;101308.69;;;10.41;100.00
37860;BME280;23698;52.014;5.190;2023-04-07T00:22:02;101311.97;;;10.60;100.00
37860;BME280;23698;52.014;5.190;2023-04-07T00:24:49;101316.88;;;10.25;100.00
37860;BME280;23698;52.014;5.190;2023-04-07T00:27:35;101318.97;;;10.14;100.00
37860;BME280;23698;52.014;5.190;2023-04-07T00:30:22;101320.38;;;10.02;100.00
37860;BME280;23698;52.014;5.190;2023-04-07T00:33:09;101311.53;;;9.77;100.00
37860;BME280;23698;52.014;5.190;2023-04-07T00:35:55;101313.75;;;10.05;100.00
37860;BME280;23698;52.014;5.190;2023-04-07T00:38:43;101317.78;;;10.17;100.00
37860;BME280;23698;52.014;5.190;2023-04-07T00:41:29;101310.19;;;10.12;100.00
37860;BME280;23698;52.014;5.190;2023-04-07T00:44:16;101311.84;;;10.13;100.00
37860;BME280;23698;52.014;5.190;2023-04-07T00:47:03;101317.94;;;9.84;100.00
37860;BME280;23698;52.014;5.190;2023-04-07T00:49:50;101318.69;;;10.01;100.00
37860;BME280;23698;52.014;5.190;2023-04-07T00:52:36;101314.56;;;9.82;100.00
37860;BME280;23698;52.014;5.190;2023-04-07T00:55:23;101313.44;;;9.68;100.00
37860;BME280;23698;52.014;5.190;2023-04-07T00:58:09;101318.47;;;9.71;100.00
37860;BME280;23698;52.014;5.190;2023-04-07T01:01:03;101312.88;;;9.81;100.00
37860;BME280;23698;52.014;5.190;2023-04-07T01:03:57;101313.34;;;9.93;100.00
37860;BME280;23698;52.014;5.190;2023-04-07T01:06:49;101310.53;;;10.09;100.00
37860;BME280;23698;52.014;5.190;2023-04-07T01:09:45;101312.56;;;10.15;100.00
37860;BME280;23698;52.014;5.190;2023-04-07T01:12:36;101321.81;;;9.90;100.00
37860;BME280;23698;52.014;5.190;2023-04-07T01:15:26;101316.94;;;10.48;100.00
37860;BME280;23698;52.014;5.190;2023-04-07T01:18:20;101304.00;;;10.35;100.00
37860;BME280;23698;52.014;5.190;2023-04-07T01:21:10;101317.91;;;10.55;100.00
37860;BME280;23698;52.014;5.190;2023-04-07T01:24:21;101312.06;;;10.89;100.00
37860;BME280;23698;52.014;5.190;2023-04-07T01:27:20;101318.78;;;10.93;100.00
37860;BME280;23698;52.014;5.190;2023-04-07T01:30:10;101315.03;;;10.56;100.00
37860;BME280;23698;52.014;5.190;2023-04-07T01:32:59;101315.91;;;10.17;100.00
37860;BME280;23698;52.014;5.190;2023-04-07T01:35:47;101318.81;;;10.47;100.00
37860;BME280;23698;52.014;5.190;2023-04-07T01:38:35;101319.75;;;11.01;100.00
37860;BME280;23698;52.014;5.190;2023-04-07T01:41:23;101312.59;;;11.08;100.00
37860;BME280;23698;52.014;5.190;2023-04-07T01:44:10;101326.00;;;11.39;100.00
37860;BME280;23698;52.014;5.190;2023-04-07T01:47:00;101336.84;;;11.24;100.00
37860;BME280;23698;52.014;5.190;2023-04-07T01:49:48;101331.66;;;11.00;100.00
37860;BME280;23698;52.014;5.190;2023-04-07T01:52:35;101338.63;;;10.71;100.00
37860;BME280;23698;52.014;5.190;2023-04-07T01:55:24;101325.38;;;10.53;100.00
37860;BME280;23698;52.014;5.190;2023-04-07T01:58:19;101331.66;;;10.76;100.00
37860;BME280;23698;52.014;5.190;2023-04-07T02:01:06;101340.91;;;10.36;100.00
37860;BME280;23698;52.014;5.190;2023-04-07T02:04:01;101327.91;;;10.54;100.00
37860;BME280;23698;52.014;5.190;2023-04-07T02:06:58;101337.19;;;10.29;100.00
37860;BME280;23698;52.014;5.190;2023-04-07T02:09:53;101337.19;;;10.29;100.00
37860;BME280;23698;52.014;5.190;2023-04-07T02:12:42;101334.91;;;10.09;100.00
37860;BME280;23698;52.014;5.190;2023-04-07T02:15:35;101327.50;;;10.03;100.00
37860;BME280;23698;52.014;5.190;2023-04-07T02:18:22;101321.09;;;9.96;100.00
37860;BME280;23698;52.014;5.190;2023-04-07T02:21:11;101323.28;;;10.00;100.00
37860;BME280;23698;52.014;5.190;2023-04-07T02:24:05;101325.59;;;10.12;100.00
37860;BME280;23698;52.014;5.190;2023-04-07T02:26:51;101325.97;;;10.00;100.00
37860;BME280;23698;52.014;5.190;2023-04-07T02:29:37;101327.31;;;10.05;100.00
37860;BME280;23698;52.014;5.190;2023-04-07T02:32:23;101327.91;;;9.83;100.00
37860;BME280;23698;52.014;5.190;2023-04-07T02:35:10;101325.84;;;9.94;100.00
37860;BME280;23698;52.014;5.190;2023-04-07T02:37:57;101322.44;;;10.00;100.00
37860;BME280;23698;52.014;5.190;2023-04-07T02:40:44;101324.09;;;10.01;100.00
37860;BME280;23698;52.014;5.190;2023-04-07T02:43:30;101327.25;;;10.21;100.00
37860;BME280;23698;52.014;5.190;2023-04-07T02:46:16;101329.06;;;10.60;100.00
37860;BME280;23698;52.014;5.190;2023-04-07T02:49:03;101331.47;;;10.78;100.00
37860;BME280;23698;52.014;5.190;2023-04-07T02:51:49;101334.16;;;10.78;100.00
37860;BME280;23698;52.014;5.190;2023-04-07T02:54:37;101339.31;;;10.96;100.00
37860;BME280;23698;52.014;5.190;2023-04-07T02:57:24;101342.91;;;10.88;100.00
37860;BME280;23698;52.014;5.190;2023-04-07T03:00:15;101338.59;;;10.79;100.00
37860;BME280;23698;52.014;5.190;2023-04-07T03:03:12;101336.66;;;10.65;100.00
37860;BME280;23698;52.014;5.190;2023-04-07T03:06:05;101342.69;;;10.52;100.00
37860;BME280;23698;52.014;5.190;2023-04-07T03:08:56;101339.31;;;10.10;100.00
37860;BME280;23698;52.014;5.190;2023-04-07T03:11:44;101328.03;;;10.38;100.00
37860;BME280;23698;52.014;5.190;2023-04-07T03:14:31;101337.31;;;10.04;100.00
37860;BME280;23698;52.014;5.190;2023-04-07T03:17:18;101342.66;;;10.20;100.00
37860;BME280;23698;52.014;5.190;2023-04-07T03:20:06;101332.41;;;10.39;100.00
37860;BME280;23698;52.014;5.190;2023-04-07T03:22:54;101343.25;;;10.31;100.00
37860;BME280;23698;52.014;5.190;2023-04-07T03:25:45;101331.84;;;10.12;100.00
37860;BME280;23698;52.014;5.190;2023-04-07T03:28:34;101331.50;;;10.15;100.00
37860;BME280;23698;52.014;5.190;2023-04-07T03:31:21;101336.81;;;10.40;100.00
37860;BME280;23698;52.014;5.190;2023-04-07T03:34:10;101334.66;;;10.27;100.00
37860;BME280;23698;52.014;5.190;2023-04-07T03:36:56;101332.25;;;10.41;100.00
37860;BME280;23698;52.014;5.190;2023-04-07T03:39:43;101342.56;;;10.45;100.00
37860;BME280;23698;52.014;5.190;2023-04-07T03:42:42;101336.25;;;10.13;100.00
37860;BME280;23698;52.014;5.190;2023-04-07T03:45:33;101347.81;;;10.47;100.00
37860;BME280;23698;52.014;5.190;2023-04-07T03:48:20;101342.34;;;10.15;100.00
37860;BME280;23698;52.014;5.190;2023-04-07T03:51:16;101341.09;;;9.95;100.00
37860;BME280;23698;52.014;5.190;2023-04-07T03:54:04;101346.03;;;10.23;100.00
37860;BME280;23698;52.014;5.190;2023-04-07T03:56:55;101342.22;;;10.00;100.00
37860;BME280;23698;52.014;5.190;2023-04-07T03:59:42;101346.22;;;10.21;100.00
37860;BME280;23698;52.014;5.190;2023-04-07T04:02:31;101354.28;;;10.37;100.00
37860;BME280;23698;52.014;5.190;2023-04-07T04:05:17;101343.16;;;9.85;100.00
37860;BME280;23698;52.014;5.190;2023-04-07T04:08:05;101352.28;;;9.83;100.00
37860;BME280;23698;52.014;5.190;2023-04-07T04:10:56;101345.69;;;9.86;100.00
37860;BME280;23698;52.014;5.190;2023-04-07T04:13:47;101345.75;;;9.61;100.00
37860;BME280;23698;52.014;5.190;2023-04-07T04:16:35;101347.66;;;9.53;100.00
37860;BME280;23698;52.014;5.190;2023-04-07T04:19:29;101340.56;;;9.27;100.00
37860;BME280;23698;52.014;5.190;2023-04-07T04:22:19;101349.84;;;9.41;100.00
37860;BME280;23698;52.014;5.190;2023-04-07T04:25:09;101347.31;;;9.56;100.00
37860;BME280;23698;52.014;5.190;2023-04-07T04:27:57;101354.59;;;9.47;100.00
37860;BME280;23698;52.014;5.190;2023-04-07T04:30:44;101352.06;;;9.45;100.00
37860;BME280;23698;52.014;5.190;2023-04-07T04:33:31;101351.53;;;9.50;100.00
37860;BME280;23698;52.014;5.190;2023-04-07T04:36:18;101355.94;;;9.35;100.00
37860;BME280;23698;52.014;5.190;2023-04-07T04:39:06;101351.56;;;9.42;100.00
37860;BME280;23698;52.014;5.190;2023-04-07T04:41:53;101349.56;;;9.83;100.00
37860;BME280;23698;52.014;5.190;2023-04-07T04:44:47;101356.66;;;9.12;100.00
37860;BME280;23698;52.014;5.190;2023-04-07T04:47:35;101364.59;;;8.97;100.00
37860;BME280;23698;52.014;5.190;2023-04-07T04:50:23;101373.91;;;8.95;100.00
37860;BME280;23698;52.014;5.190;2023-04-07T04:53:11;101379.13;;;8.96;100.00
37860;BME280;23698;52.014;5.190;2023-04-07T04:56:08;101382.31;;;8.75;100.00
37860;BME280;23698;52.014;5.190;2023-04-07T04:59:04;101387.06;;;8.81;100.00
37860;BME280;23698;52.014;5.190;2023-04-07T05:01:59;101385.88;;;8.76;100.00
37860;BME280;23698;52.014;5.190;2023-04-07T05:04:45;101390.75;;;8.80;100.00
37860;BME280;23698;52.014;5.190;2023-04-07T05:07:45;101384.34;;;8.81;100.00
37860;BME280;23698;52.014;5.190;2023-04-07T05:10:37;101385.00;;;8.59;100.00
37860;BME280;23698;52.014;5.190;2023-04-07T05:13:26;101384.88;;;8.85;100.00
37860;BME280;23698;52.014;5.190;2023-04-07T05:16:17;101380.31;;;9.02;100.00
37860;BME280;23698;52.014;5.190;2023-04-07T05:19:04;101384.53;;;8.80;100.00
37860;BME280;23698;52.014;5.190;2023-04-07T05:21:51;101381.19;;;9.11;100.00
37860;BME280;23698;52.014;5.190;2023-04-07T05:24:39;101389.78;;;9.06;100.00
37860;BME280;23698;52.014;5.190;2023-04-07T05:27:27;101390.63;;;9.15;100.00
37860;BME280;23698;52.014;5.190;2023-04-07T05:30:19;101395.38;;;9.13;100.00
37860;BME280;23698;52.014;5.190;2023-04-07T05:33:06;101394.53;;;9.29;100.00
37860;BME280;23698;52.014;5.190;2023-04-07T05:36:07;101398.75;;;9.23;100.00
37860;BME280;23698;52.014;5.190;2023-04-07T05:38:56;101396.88;;;9.56;100.00
37860;BME280;23698;52.014;5.190;2023-04-07T05:41:43;101396.31;;;9.77;100.00
37860;BME280;23698;52.014;5.190;2023-04-07T05:44:31;101396.31;;;9.77;100.00
37860;BME280;23698;52.014;5.190;2023-04-07T05:47:18;101394.75;;;10.39;100.00
37860;BME280;23698;52.014;5.190;2023-04-07T05:50:08;101397.16;;;10.88;100.00
37860;BME280;23698;52.014;5.190;2023-04-07T05:52:56;101402.03;;;11.16;100.00
37860;BME280;23698;52.014;5.190;2023-04-07T05:55:44;101408.41;;;11.46;100.00
37860;BME280;23698;52.014;5.190;2023-04-07T05:58:39;101417.91;;;11.27;100.00
37860;BME280;23698;52.014;5.190;2023-04-07T06:01:28;101416.69;;;11.30;100.00
37860;BME280;23698;52.014;5.190;2023-04-07T06:04:15;101420.00;;;11.40;100.00
37860;BME280;23698;52.014;5.190;2023-04-07T06:07:03;101421.28;;;11.29;100.00
37860;BME280;23698;52.014;5.190;2023-04-07T06:09:50;101433.81;;;11.53;100.00
37860;BME280;23698;52.014;5.190;2023-04-07T06:12:36;101435.63;;;11.38;100.00
37860;BME280;23698;52.014;5.190;2023-04-07T06:15:23;101436.59;;;11.22;100.00
37860;BME280;23698;52.014;5.190;2023-04-07T06:18:11;101431.59;;;11.11;100.00
37860;BME280;23698;52.014;5.190;2023-04-07T06:20:57;101437.44;;;10.37;100.00
37860;BME280;23698;52.014;5.190;2023-04-07T06:23:43;101436.31;;;10.63;100.00
37860;BME280;23698;52.014;5.190;2023-04-07T06:26:29;101437.97;;;10.72;100.00
37860;BME280;23698;52.014;5.190;2023-04-07T06:29:16;101434.94;;;10.67;100.00
37860;BME280;23698;52.014;5.190;2023-04-07T06:32:02;101437.63;;;10.98;100.00
37860;BME280;23698;52.014;5.190;2023-04-07T06:34:50;101449.56;;;10.89;100.00
37860;BME280;23698;52.014;5.190;2023-04-07T06:37:37;101443.22;;;11.20;100.00
37860;BME280;23698;52.014;5.190;2023-04-07T06:40:24;101453.59;;;10.93;100.00
37860;BME280;23698;52.014;5.190;2023-04-07T06:43:10;101448.34;;;10.91;100.00
37860;BME280;23698;52.014;5.190;2023-04-07T06:46:07;101444.50;;;11.09;100.00
37860;BME280;23698;52.014;5.190;2023-04-07T06:48:54;101453.09;;;11.36;100.00
37860;BME280;23698;52.014;5.190;2023-04-07T06:51:41;101458.00;;;11.40;100.00
37860;BME280;23698;52.014;5.190;2023-04-07T06:54:28;101462.66;;;11.08;100.00
37860;BME280;23698;52.014;5.190;2023-04-07T06:57:14;101466.97;;;10.94;100.00
37860;BME280;23698;52.014;5.190;2023-04-07T07:00:01;101462.19;;;11.05;100.00
37860;BME280;23698;52.014;5.190;2023-04-07T07:02:48;101466.81;;;10.65;100.00
37860;BME280;23698;52.014;5.190;2023-04-07T07:05:34;101468.97;;;10.69;100.00
37860;BME280;23698;52.014;5.190;2023-04-07T07:08:22;101470.66;;;10.70;100.00
37860;BME280;23698;52.014;5.190;2023-04-07T07:11:09;101474.34;;;10.46;100.00
37860;BME280;23698;52.014;5.190;2023-04-07T07:13:55;101473.59;;;10.61;100.00
37860;BME280;23698;52.014;5.190;2023-04-07T07:16:42;101483.34;;;10.47;100.00
37860;BME280;23698;52.014;5.190;2023-04-07T07:19:28;101477.91;;;10.78;100.00
37860;BME280;23698;52.014;5.190;2023-04-07T07:22:14;101474.44;;;10.61;100.00
37860;BME280;23698;52.014;5.190;2023-04-07T07:25:02;101485.38;;;10.28;100.00
37860;BME280;23698;52.014;5.190;2023-04-07T07:27:49;101488.81;;;10.70;100.00
37860;BME280;23698;52.014;5.190;2023-04-07T07:30:38;101487.72;;;10.87;100.00
37860;BME280;23698;52.014;5.190;2023-04-07T07:33:25;101497.00;;;10.93;100.00
37860;BME280;23698;52.014;5.190;2023-04-07T07:36:11;101500.94;;;11.13;100.00
37860;BME280;23698;52.014;5.190;2023-04-07T07:38:58;101502.06;;;10.96;100.00
37860;BME280;23698;52.014;5.190;2023-04-07T07:41:46;101504.97;;;10.94;100.00
37860;BME280;23698;52.014;5.190;2023-04-07T07:44:32;101500.66;;;11.31;100.00
37860;BME280;23698;52.014;5.190;2023-04-07T07:47:18;101501.78;;;11.14;100.00
37860;BME280;23698;52.014;5.190;2023-04-07T07:50:05;101510.69;;;11.00;100.00
37860;BME280;23698;52.014;5.190;2023-04-07T07:52:52;101513.47;;;11.14;100.00
37860;BME280;23698;52.014;5.190;2023-04-07T07:55:38;101511.88;;;11.28;100.00
37860;BME280;23698;52.014;5.190;2023-04-07T07:58:26;101520.03;;;10.97;100.00
37860;BME280;23698;52.014;5.190;2023-04-07T08:01:12;101518.25;;;11.12;100.00
37860;BME280;23698;52.014;5.190;2023-04-07T08:03:59;101523.16;;;11.17;100.00
37860;BME280;23698;52.014;5.190;2023-04-07T08:06:45;101523.75;;;11.27;100.00
37860;BME280;23698;52.014;5.190;2023-04-07T08:09:32;101530.78;;;11.45;100.00
37860;BME280;23698;52.014;5.190;2023-04-07T08:12:18;101530.38;;;11.25;100.00
37860;BME280;23698;52.014;5.190;2023-04-07T08:15:06;101529.41;;;11.18;100.00
37860;BME280;23698;52.014;5.190;2023-04-07T08:17:54;101536.25;;;11.37;100.00
37860;BME280;23698;52.014;5.190;2023-04-07T08:20:41;101537.00;;;10.99;100.00
37860;BME280;23698;52.014;5.190;2023-04-07T08:23:27;101542.53;;;11.06;100.00
37860;BME280;23698;52.014;5.190;2023-04-07T08:26:14;101548.31;;;11.34;100.00
37860;BME280;23698;52.014;5.190;2023-04-07T08:29:00;101549.50;;;11.00;100.00
37860;BME280;23698;52.014;5.190;2023-04-07T08:31:48;101549.13;;;11.11;100.00
37860;BME280;23698;52.014;5.190;2023-04-07T08:34:34;101556.22;;;11.44;100.00
37860;BME280;23698;52.014;5.190;2023-04-07T08:37:21;101552.66;;;11.43;100.00
37860;BME280;23698;52.014;5.190;2023-04-07T08:40:08;101567.88;;;11.52;100.00
37860;BME280;23698;52.014;5.190;2023-04-07T08:42:55;101557.00;;;11.29;100.00
37860;BME280;23698;52.014;5.190;2023-04-07T08:45:44;101563.44;;;11.28;100.00
37860;BME280;23698;52.014;5.190;2023-04-07T08:48:33;101569.00;;;11.35;100.00
37860;BME280;23698;52.014;5.190;2023-04-07T08:51:26;101581.00;;;11.09;100.00
37860;BME280;23698;52.014;5.190;2023-04-07T08:54:15;101571.22;;;11.31;100.00
37860;BME280;23698;52.014;5.190;2023-04-07T08:57:03;101584.41;;;11.66;100.00
37860;BME280;23698;52.014;5.190;2023-04-07T08:59:50;101580.06;;;11.80;100.00
37860;BME280;23698;52.014;5.190;2023-04-07T09:02:38;101588.28;;;11.71;100.00
37860;BME280;23698;52.014;5.190;2023-04-07T09:05:32;101587.00;;;11.82;100.00
37860;BME280;23698;52.014;5.190;2023-04-07T09:08:20;101591.69;;;11.65;100.00
37860;BME280;23698;52.014;5.190;2023-04-07T09:11:06;101591.34;;;11.92;100.00
37860;BME280;23698;52.014;5.190;2023-04-07T09:13:52;101593.44;;;11.58;100.00
37860;BME280;23698;52.014;5.190;2023-04-07T09:16:39;101594.97;;;12.07;100.00
37860;BME280;23698;52.014;5.190;2023-04-07T09:19:26;101599.50;;;12.15;100.00
37860;BME280;23698;52.014;5.190;2023-04-07T09:22:33;101596.00;;;12.06;100.00
37860;BME280;23698;52.014;5.190;2023-04-07T09:25:21;101606.66;;;12.31;100.00
37860;BME280;23698;52.014;5.190;2023-04-07T09:28:11;101601.13;;;12.24;100.00
37860;BME280;23698;52.014;5.190;2023-04-07T09:30:58;101607.78;;;12.21;100.00
37860;BME280;23698;52.014;5.190;2023-04-07T09:33:44;101601.88;;;12.33;100.00
37860;BME280;23698;52.014;5.190;2023-04-07T09:36:40;101605.31;;;12.12;100.00
37860;BME280;23698;52.014;5.190;2023-04-07T09:39:28;101599.50;;;11.92;100.00
37860;BME280;23698;52.014;5.190;2023-04-07T09:42:14;101604.31;;;12.27;100.00
37860;BME280;23698;52.014;5.190;2023-04-07T09:45:01;101600.59;;;12.73;100.00
37860;BME280;23698;52.014;5.190;2023-04-07T09:47:48;101609.50;;;12.52;100.00
37860;BME280;23698;52.014;5.190;2023-04-07T09:50:37;101611.63;;;12.27;100.00
37860;BME280;23698;52.014;5.190;2023-04-07T09:53:40;101624.72;;;12.76;100.00
37860;BME280;23698;52.014;5.190;2023-04-07T09:56:28;101636.44;;;13.21;100.00
37860;BME280;23698;52.014;5.190;2023-04-07T09:59:15;101648.53;;;12.89;100.00
37860;BME280;23698;52.014;5.190;2023-04-07T10:02:02;101647.09;;;13.53;100.00
37860;BME280;23698;52.014;5.190;2023-04-07T10:04:49;101641.28;;;13.26;100.00
37860;BME280;23698;52.014;5.190;2023-04-07T10:07:35;101650.41;;;12.59;100.00
37860;BME280;23698;52.014;5.190;2023-04-07T10:10:22;101644.69;;;12.83;100.00
37860;BME280;23698;52.014;5.190;2023-04-07T10:13:10;101655.13;;;12.95;100.00
37860;BME280;23698;52.014;5.190;2023-04-07T10:15:57;101658.38;;;12.60;100.00
37860;BME280;23698;52.014;5.190;2023-04-07T10:18:44;101651.81;;;12.55;100.00
37860;BME280;23698;52.014;5.190;2023-04-07T10:21:33;101656.63;;;12.97;100.00
37860;BME280;23698;52.014;5.190;2023-04-07T10:24:31;101657.06;;;12.71;100.00
37860;BME280;23698;52.014;5.190;2023-04-07T10:27:28;101660.59;;;12.42;100.00
37860;BME280;23698;52.014;5.190;2023-04-07T10:30:21;101659.81;;;12.33;100.00
37860;BME280;23698;52.014;5.190;2023-04-07T10:33:09;101661.59;;;11.71;100.00
37860;BME280;23698;52.014;5.190;2023-04-07T10:36:02;101669.31;;;11.83;100.00
37860;BME280;23698;52.014;5.190;2023-04-07T10:39:20;101665.25;;;11.87;100.00
37860;BME280;23698;52.014;5.190;2023-04-07T10:42:45;101684.28;;;12.33;100.00
37860;BME280;23698;52.014;5.190;2023-04-07T10:45:55;101683.09;;;12.51;100.00
37860;BME280;23698;52.014;5.190;2023-04-07T10:49:06;101684.94;;;12.73;100.00
37860;BME280;23698;52.014;5.190;2023-04-07T10:52:20;101687.41;;;12.45;100.00
37860;BME280;23698;52.014;5.190;2023-04-07T10:55:32;101686.72;;;12.05;100.00
37860;BME280;23698;52.014;5.190;2023-04-07T10:58:20;101680.06;;;12.31;100.00
37860;BME280;23698;52.014;5.190;2023-04-07T11:01:29;101682.06;;;11.90;100.00
37860;BME280;23698;52.014;5.190;2023-04-07T11:04:16;101683.94;;;11.59;100.00
37860;BME280;23698;52.014;5.190;2023-04-07T11:07:02;101683.34;;;11.71;100.00
37860;BME280;23698;52.014;5.190;2023-04-07T11:09:48;101684.97;;;11.81;100.00
37860;BME280;23698;52.014;5.190;2023-04-07T11:12:35;101686.28;;;11.93;100.00
37860;BME280;23698;52.014;5.190;2023-04-07T11:15:21;101695.13;;;11.87;100.00
37860;BME280;23698;52.014;5.190;2023-04-07T11:18:14;101688.25;;;12.07;100.00
37860;BME280;23698;52.014;5.190;2023-04-07T11:21:05;101692.69;;;12.00;100.00
37860;BME280;23698;52.014;5.190;2023-04-07T11:23:52;101706.53;;;11.82;100.00
37860;BME280;23698;52.014;5.190;2023-04-07T11:26:39;101697.16;;;11.93;100.00
37860;BME280;23698;52.014;5.190;2023-04-07T11:29:27;101704.94;;;11.96;100.00
37860;BME280;23698;52.014;5.190;2023-04-07T11:32:14;101699.50;;;12.42;100.00
37860;BME280;23698;52.014;5.190;2023-04-07T11:35:05;101705.78;;;12.43;100.00
37860;BME280;23698;52.014;5.190;2023-04-07T11:37:56;101705.31;;;12.39;100.00
37860;BME280;23698;52.014;5.190;2023-04-07T11:40:42;101703.13;;;12.73;100.00
37860;BME280;23698;52.014;5.190;2023-04-07T11:43:29;101713.94;;;12.81;100.00
37860;BME280;23698;52.014;5.190;2023-04-07T11:46:17;101715.56;;;12.52;100.00
37860;BME280;23698;52.014;5.190;2023-04-07T11:49:11;101720.16;;;12.90;100.00
37860;BME280;23698;52.014;5.190;2023-04-07T11:52:00;101712.53;;;12.85;100.00
37860;BME280;23698;52.014;5.190;2023-04-07T11:54:47;101722.25;;;12.64;100.00
37860;BME280;23698;52.014;5.190;2023-04-07T11:57:34;101730.41;;;12.64;100.00
37860;BME280;23698;52.014;5.190;2023-04-07T12:00:21;101719.31;;;13.04;100.00
37860;BME280;23698;52.014;5.190;2023-04-07T12:03:10;101730.94;;;12.22;100.00
37860;BME280;23698;52.014;5.190;2023-04-07T12:06:01;101729.53;;;12.26;100.00
37860;BME280;23698;52.014;5.190;2023-04-07T12:08:48;101728.50;;;12.50;100.00
37860;BME280;23698;52.014;5.190;2023-04-07T12:11:35;101729.13;;;12.75;100.00
37860;BME280;23698;52.014;5.190;2023-04-07T12:14:21;101737.59;;;12.95;100.00
37860;BME280;23698;52.014;5.190;2023-04-07T12:17:21;101747.13;;;13.14;100.00
37860;BME280;23698;52.014;5.190;2023-04-07T12:20:09;101750.97;;;13.50;100.00
37860;BME280;23698;52.014;5.190;2023-04-07T12:22:59;101745.06;;;13.46;100.00
37860;BME280;23698;52.014;5.190;2023-04-07T12:25:53;101750.28;;;13.03;100.00
37860;BME280;23698;52.014;5.190;2023-04-07T12:28:39;101754.63;;;13.57;100.00
37860;BME280;23698;52.014;5.190;2023-04-07T12:31:26;101754.63;;;13.27;100.00
37860;BME280;23698;52.014;5.190;2023-04-07T12:34:13;101756.97;;;13.30;100.00
37860;BME280;23698;52.014;5.190;2023-04-07T12:36:59;101759.88;;;13.29;100.00
37860;BME280;23698;52.014;5.190;2023-04-07T12:39:45;101763.91;;;13.18;100.00
37860;BME280;23698;52.014;5.190;2023-04-07T12:42:33;101762.63;;;12.53;100.00
37860;BME280;23698;52.014;5.190;2023-04-07T12:45:20;101764.22;;;12.24;100.00
37860;BME280;23698;52.014;5.190;2023-04-07T12:48:07;101766.13;;;12.61;100.00
37860;BME280;23698;52.014;5.190;2023-04-07T12:50:54;101763.88;;;12.65;100.00
37860;BME280;23698;52.014;5.190;2023-04-07T12:53:40;101770.28;;;12.34;100.00
37860;BME280;23698;52.014;5.190;2023-04-07T12:56:26;101766.88;;;12.32;100.00
37860;BME280;23698;52.014;5.190;2023-04-07T12:59:16;101778.81;;;12.23;100.00
37860;BME280;23698;52.014;5.190;2023-04-07T13:02:02;101776.13;;;12.46;100.00
37860;BME280;23698;52.014;5.190;2023-04-07T13:04:49;101785.25;;;12.91;100.00
37860;BME280;23698;52.014;5.190;2023-04-07T13:07:35;101791.00;;;12.96;100.00
37860;BME280;23698;52.014;5.190;2023-04-07T13:10:22;101791.09;;;12.19;100.00
37860;BME280;23698;52.014;5.190;2023-04-07T13:13:08;101773.00;;;12.34;100.00
37860;BME280;23698;52.014;5.190;2023-04-07T13:15:56;101788.09;;;12.60;100.00
37860;BME280;23698;52.014;5.190;2023-04-07T13:18:42;101780.22;;;12.42;100.00
37860;BME280;23698;52.014;5.190;2023-04-07T13:21:29;101781.38;;;12.24;100.00
37860;BME280;23698;52.014;5.190;2023-04-07T13:24:18;101782.06;;;11.95;100.00
37860;BME280;23698;52.014;5.190;2023-04-07T13:27:05;101776.25;;;11.98;100.00
37860;BME280;23698;52.014;5.190;2023-04-07T13:29:52;101779.28;;;12.03;100.00
37860;BME280;23698;52.014;5.190;2023-04-07T13:32:40;101781.38;;;12.24;100.00
37860;BME280;23698;52.014;5.190;2023-04-07T13:35:27;101785.41;;;12.75;100.00
37860;BME280;23698;52.014;5.190;2023-04-07T13:38:14;101785.13;;;12.46;100.00
37860;BME280;23698;52.014;5.190;2023-04-07T13:41:01;101791.56;;;11.99;100.00
37860;BME280;23698;52.014;5.190;2023-04-07T13:43:49;101797.53;;;12.18;100.00
37860;BME280;23698;52.014;5.190;2023-04-07T13:46:36;101797.44;;;12.11;100.00
37860;BME280;23698;52.014;5.190;2023-04-07T13:49:23;101793.81;;;11.79;100.00
37860;BME280;23698;52.014;5.190;2023-04-07T13:52:10;101792.16;;;11.70;100.00
37860;BME280;23698;52.014;5.190;2023-04-07T13:54:57;101797.31;;;12.04;100.00
37860;BME280;23698;52.014;5.190;2023-04-07T13:57:43;101795.88;;;12.17;100.00
37860;BME280;23698;52.014;5.190;2023-04-07T14:00:30;101793.53;;;12.05;100.00
37860;BME280;23698;52.014;5.190;2023-04-07T14:03:19;101794.75;;;12.34;100.00
37860;BME280;23698;52.014;5.190;2023-04-07T14:06:08;101794.34;;;12.14;100.00
37860;BME280;23698;52.014;5.190;2023-04-07T14:08:54;101808.34;;;12.03;100.00
37860;BME280;23698;52.014;5.190;2023-04-07T14:11:41;101802.59;;;12.29;100.00
37860;BME280;23698;52.014;5.190;2023-04-07T14:14:28;101807.63;;;12.09;100.00
37860;BME280;23698;52.014;5.190;2023-04-07T14:17:14;101805.91;;;12.16;100.00
37860;BME280;23698;52.014;5.190;2023-04-07T14:20:00;101804.03;;;12.40;100.00
37860;BME280;23698;52.014;5.190;2023-04-07T14:22:49;101808.56;;;12.24;100.00
37860;BME280;23698;52.014;5.190;2023-04-07T14:25:36;101805.75;;;12.64;100.00
37860;BME280;23698;52.014;5.190;2023-04-07T14:28:22;101803.50;;;12.44;100.00
37860;BME280;23698;52.014;5.190;2023-04-07T14:31:13;101808.75;;;12.69;100.00
37860;BME280;23698;52.014;5.190;2023-04-07T14:34:00;101816.47;;;13.18;100.00